Sturgis, MI

6:09 AM EST on December 12, 2019 (GMT -0500)
Kirsch Municipal

Weather History for KIRS - October, 2019

Change the Weather History Date:

Saturday, October 26, 2019

  Actual Average (KHAI) Record (KHAI)
Temperature  
Mean Temperature 48 °F -  
Max Temperature 61 °F 57 °F 80 °F (1963)
Min Temperature 36 °F 37 °F 13 °F (1962)
Degree Days  
Heating Degree Days 16    
Moisture  
Dew Point 42 °F    
Average Humidity 87    
Maximum Humidity 89    
Minimum Humidity 80    
Precipitation  
Precipitation 1.20 in - - ()
Sea Level Pressure  
Sea Level Pressure 29.94 in    
Wind  
Wind Speed 6 mph ()    
Max Wind Speed 21 mph    
Max Gust Speed 29 mph    
Visibility 6.9 miles    
Events Rain    
Averages and records for this station are not official NWS values.
T = Trace of Precipitation, MM = Missing Value Source: Averaged Metar Reports

Daily Weather History Graph

Daily Weather History Graph

Search for Another Location

Airport or City:

Astronomy

Oct. 26, 2019 Rise Set
Actual Time 8:06 AM EDT 6:44 PM EDT
Civil Twilight 7:37 AM EDT 7:12 PM EDT
Nautical Twilight 7:05 AM EDT 7:45 PM EDT
Astronomical Twilight 6:33 AM EDT 8:17 PM EDT
Moon 5:58 AM EDT (10/26) 6:21 PM EDT (10/26)
Length of Visible Light 11h 34m
Length of Day
10h 37m
Waning Crescent, 3% of the Moon is Illuminated
Oct 26
Waning Crescent
Oct 27
New
Nov 4
First Quarter
Nov 12
Full
Nov 19
Last Quarter

Hourly Weather History & Observations

Time (EDT) Temp. Windchill Dew Point Humidity Pressure Visibility Wind Dir Wind Speed Gust Speed Precip Events Conditions
12:15 AM 37.9 °F - 34.9 °F 89% 30.22 in 10.0 mi Calm Calm - N/A   Clear
12:35 AM 36.9 °F - 33.8 °F 89% 30.22 in 10.0 mi Calm Calm - N/A   Clear
12:36 AM 37.0 °F - 33.8 °F 88% 30.22 in 10.0 mi Calm Calm - N/A   Clear
12:59 AM 37.2 °F - 34.2 °F 89% 30.21 in 5.0 mi Calm Calm - N/A   Clear
1:17 AM 36.1 °F - 33.1 °F 89% 30.21 in 7.0 mi Calm Calm - N/A   Clear
1:35 AM 36.0 °F - 32.9 °F 89% 30.21 in 7.0 mi Calm Calm - N/A   Clear
1:55 AM 36.9 °F - 33.6 °F 88% 30.20 in 5.0 mi Calm Calm - N/A   Clear
1:56 AM 36.7 °F - 33.6 °F 89% 30.20 in 5.0 mi Calm Calm - N/A   Clear
2:15 AM 36.7 °F - 33.8 °F 89% 30.21 in 5.0 mi Calm Calm - N/A   Clear
2:20 AM 36.7 °F - 33.8 °F 89% 30.21 in 5.0 mi Calm Calm - N/A   Clear
2:38 AM 36.7 °F - 33.6 °F 89% 30.20 in 4.0 mi Calm Calm - N/A   Clear
2:56 AM 36.0 °F - 32.9 °F 89% 30.20 in 4.0 mi Calm Calm - N/A   Clear
3:15 AM 36.1 °F 33.5 °F 33.1 °F 89% 30.19 in 7.0 mi ENE 3.5 mph - N/A   Clear
3:35 AM 36.7 °F - 33.8 °F 89% 30.20 in 7.0 mi Calm Calm - N/A   Clear
3:59 AM 36.7 °F 34.1 °F 33.6 °F 89% 30.18 in 7.0 mi ENE 3.5 mph - N/A   Clear
4:17 AM 37.2 °F - 34.2 °F 89% 30.18 in 7.0 mi Calm Calm - N/A   Clear
4:35 AM 37.8 °F - 34.7 °F 89% 30.18 in 7.0 mi Calm Calm - N/A   Clear
4:55 AM 36.7 °F 32.9 °F 33.8 °F 89% 30.16 in 7.0 mi ENE 4.6 mph - N/A   Clear
4:56 AM 36.7 °F 32.9 °F 33.8 °F 89% 30.16 in 7.0 mi ENE 4.6 mph - N/A   Clear
5:15 AM 36.9 °F 34.3 °F 33.8 °F 89% 30.16 in 10.0 mi East 3.5 mph - N/A   Clear
5:38 AM 36.3 °F - 33.3 °F 89% 30.16 in 10.0 mi Calm Calm - N/A   Clear
5:56 AM 36.9 °F 33.1 °F 33.8 °F 89% 30.17 in 10.0 mi ENE 4.6 mph - N/A   Clear
6:15 AM 37.8 °F 33.3 °F 34.5 °F 88% 30.17 in 10.0 mi East 5.8 mph - N/A   Clear
6:16 AM 37.9 °F 33.5 °F 34.5 °F 87% 30.17 in 10.0 mi East 5.8 mph - N/A   Clear
6:35 AM 38.3 °F 32.5 °F 34.7 °F 87% 30.15 in 10.0 mi ENE 8.1 mph - N/A   Clear
6:59 AM 37.6 °F 34.0 °F 33.8 °F 86% 30.15 in 10.0 mi ENE 4.6 mph - N/A   Clear
7:17 AM 37.4 °F 32.1 °F 33.8 °F 87% 30.14 in 10.0 mi East 6.9 mph - N/A   Clear
7:35 AM 37.8 °F 32.5 °F 33.8 °F 86% 30.14 in 10.0 mi East 6.9 mph - N/A   Clear
7:36 AM 37.8 °F 32.5 °F 33.8 °F 86% 30.14 in 10.0 mi East 6.9 mph - N/A   Clear
7:55 AM 38.3 °F 32.5 °F 33.8 °F 84% 30.14 in 10.0 mi East 8.1 mph - N/A   Clear
7:56 AM 38.3 °F 31.9 °F 33.8 °F 84% 30.14 in 10.0 mi East 9.2 mph - N/A   Clear
8:15 AM 38.8 °F 33.8 °F 34.2 °F 83% 30.13 in 10.0 mi East 6.9 mph - N/A   Clear
8:38 AM 39.9 °F 34.5 °F 34.7 °F 82% 30.12 in 10.0 mi East 8.1 mph - N/A   Clear
8:56 AM 40.1 °F 34.7 °F 34.7 °F 81% 30.11 in 10.0 mi East 8.1 mph - N/A   Clear
9:16 AM 41.0 °F 35.8 °F 35.6 °F 81% 30.11 in 10.0 mi East 8.1 mph - N/A   Clear
9:35 AM 41.2 °F 35.5 °F 36.5 °F 83% 30.09 in 10.0 mi East 9.2 mph - N/A   Clear
9:59 AM 42.8 °F 37.5 °F 37.9 °F 83% 30.09 in 10.0 mi East 9.2 mph - N/A   Clear
10:17 AM 43.7 °F 38.6 °F 39.2 °F 84% 30.07 in 10.0 mi East 9.2 mph - N/A   Clear
10:35 AM 44.8 °F 40.4 °F 40.3 °F 84% 30.08 in 7.0 mi East 8.1 mph - N/A   Scattered Clouds
10:55 AM 45.9 °F 40.4 °F 41.0 °F 83% 30.08 in 7.0 mi ESE 11.5 mph - N/A   Scattered Clouds
11:15 AM 45.9 °F 40.0 °F 40.6 °F 82% 30.06 in 7.0 mi East 12.7 mph - N/A   Scattered Clouds
11:20 AM 45.9 °F 39.7 °F 40.8 °F 83% 30.06 in 7.0 mi East 13.8 mph - N/A   Clear
11:38 AM 46.4 °F 41.5 °F 41.4 °F 83% 30.05 in 7.0 mi East 10.4 mph - N/A   Scattered Clouds
11:56 AM 47.3 °F - 42.1 °F 82% 30.05 in 7.0 mi ESE 9.2 mph - N/A   Mostly Cloudy
12:15 PM 47.8 °F - 42.1 °F 80% 30.04 in 7.0 mi ESE 12.7 mph 19.6 mph N/A   Light Drizzle
12:35 PM 47.5 °F - 42.8 °F 84% 30.03 in 5.0 mi ESE 11.5 mph 18.4 mph N/A Rain Light Rain
12:36 PM 47.5 °F - 42.8 °F 84% 30.03 in 5.0 mi ESE 10.4 mph 18.4 mph 0.01 in Rain Light Rain
12:59 PM 47.3 °F - 43.3 °F 86% 30.00 in 5.0 mi East 11.5 mph 18.4 mph 0.02 in Rain Light Rain
1:17 PM 47.3 °F - 43.5 °F 87% 29.99 in 5.0 mi East 11.5 mph 19.6 mph 0.01 in Rain Light Rain
1:35 PM 47.5 °F - 43.7 °F 87% 29.97 in 5.0 mi ESE 12.7 mph 18.4 mph 0.02 in Rain Light Rain
1:55 PM 47.5 °F - 43.7 °F 87% 29.95 in 5.0 mi East 11.5 mph 18.4 mph 0.03 in Rain Light Rain
2:15 PM 47.5 °F - 43.9 °F 87% 29.94 in 4.0 mi East 11.5 mph 18.4 mph 0.01 in Rain Light Rain
2:20 PM 47.5 °F - 43.9 °F 87% 29.93 in 4.0 mi East 15.0 mph - 0.02 in Rain Light Rain
2:38 PM 47.5 °F - 44.1 °F 88% 29.91 in 4.0 mi East 11.5 mph 19.6 mph 0.03 in Rain Light Rain
2:56 PM 47.8 °F - 44.6 °F 89% 29.89 in 4.0 mi East 12.7 mph 18.4 mph 0.05 in Rain Light Rain
3:15 PM 47.8 °F - 44.6 °F 89% 29.88 in 4.0 mi East 11.5 mph 17.3 mph 0.02 in Rain Light Rain
3:35 PM 48.2 °F - 44.8 °F 88% 29.85 in 4.0 mi East 11.5 mph 16.1 mph 0.04 in Rain Light Rain
3:36 PM 48.2 °F - 44.8 °F 88% 29.85 in 4.0 mi East 12.7 mph 19.6 mph 0.04 in Rain Light Rain
3:58 PM 48.6 °F - 45.5 °F 89% 29.84 in 4.0 mi East 11.5 mph 18.4 mph 0.07 in Rain Light Rain
4:17 PM 49.1 °F - 45.7 °F 88% 29.81 in 2.5 mi East 12.7 mph 21.9 mph 0.04 in Rain Light Rain
4:35 PM 49.3 °F - 46.0 °F 89% 29.79 in 2.5 mi East 13.8 mph 19.6 mph 0.09 in Rain Rain
4:36 PM 49.3 °F - 46.0 °F 89% 29.79 in 2.5 mi East 15.0 mph 19.6 mph 0.09 in Rain Rain
4:55 PM 49.6 °F - 46.4 °F 89% 29.78 in 3.0 mi East 13.8 mph - 0.16 in Rain Light Rain
4:56 PM 49.8 °F - 46.4 °F 88% 29.78 in 4.0 mi East 12.7 mph - 0.16 in Rain Rain
5:15 PM 50.0 °F - 46.8 °F 89% 29.76 in 4.0 mi East 12.7 mph 20.7 mph 0.05 in Rain Rain
5:38 PM 50.4 °F - 47.3 °F 89% 29.75 in 5.0 mi East 13.8 mph 20.7 mph 0.13 in Rain Rain
5:56 PM 50.5 °F - 47.3 °F 89% 29.74 in 4.0 mi East 13.8 mph - 0.21 in Rain Rain
6:15 PM 50.9 °F - 47.7 °F 89% 29.72 in 4.0 mi East 15.0 mph 21.9 mph 0.06 in Rain Rain
6:16 PM 50.9 °F - 47.7 °F 89% 29.71 in 5.0 mi East 15.0 mph 20.7 mph 0.06 in Rain Rain
6:35 PM 51.1 °F - 47.8 °F 89% 29.69 in 5.0 mi East 13.8 mph 20.7 mph 0.14 in Rain Rain
6:59 PM 51.3 °F - 48.2 °F 89% 29.68 in 5.0 mi East 20.7 mph 25.3 mph 0.21 in Rain Rain
7:17 PM 51.8 °F - 48.4 °F 88% 29.66 in 3.0 mi East 15.0 mph 18.4 mph 0.10 in Rain Rain
7:35 PM 51.8 °F - 48.6 °F 89% 29.64 in 3.0 mi East 17.3 mph 23.0 mph 0.19 in Rain Heavy Rain
7:36 PM 51.8 °F - 48.6 °F 89% 29.64 in 3.0 mi East 16.1 mph 23.0 mph 0.20 in Rain Heavy Rain
7:55 PM 52.0 °F - 48.7 °F 89% 29.61 in 1.0 mi East 16.1 mph 25.3 mph 0.41 in   Unknown
8:15 PM 52.3 °F - 49.1 °F 89% 29.62 in 4.0 mi ESE 13.8 mph 25.3 mph 0.03 in Rain Light Rain
8:38 PM 52.9 °F - 49.5 °F 88% 29.58 in 7.0 mi ESE 13.8 mph 19.6 mph 0.04 in Rain Light Rain
8:55 PM 53.6 °F - 50.2 °F 88% 29.56 in 10.0 mi SE 11.5 mph 21.9 mph 0.04 in Rain Light Rain
9:15 PM 55.4 °F - 51.6 °F 87% 29.54 in 10.0 mi SE 19.6 mph 28.8 mph N/A   Overcast
9:16 PM 55.6 °F - 51.8 °F 87% 29.54 in 10.0 mi SE 17.3 mph 28.8 mph N/A   Overcast
9:35 PM 56.5 °F - 52.9 °F 88% 29.51 in 10.0 mi SE 16.1 mph 25.3 mph N/A   Overcast
9:59 PM 57.4 °F - 53.6 °F 87% 29.50 in 10.0 mi SSE 15.0 mph 26.5 mph N/A   Overcast
10:17 PM 57.6 °F - 54.3 °F 89% 29.49 in 10.0 mi SE 15.0 mph 24.2 mph N/A   Overcast
10:35 PM 58.8 °F - 55.2 °F 88% 29.50 in 10.0 mi SSE 17.3 mph 21.9 mph N/A   Overcast
10:36 PM 58.8 °F - 55.2 °F 88% 29.50 in 10.0 mi SSE 16.1 mph 21.9 mph N/A   Overcast
10:55 PM 60.1 °F - 55.9 °F 86% 29.49 in 10.0 mi SSE 19.6 mph 24.2 mph N/A   Overcast
11:15 PM 60.8 °F - 56.3 °F 85% 29.48 in 10.0 mi SE 13.8 mph 21.9 mph N/A   Overcast
11:38 PM 61.0 °F - 56.5 °F 85% 29.47 in 10.0 mi SSE 12.7 mph 20.7 mph N/A Rain Light Rain
11:56 PM 61.0 °F - 57.0 °F 87% 29.44 in 10.0 mi SSE 13.8 mph - N/A   Overcast